createdAt,value
2022-12-01T00:04:15.145Z,85.3
2022-12-01T00:10:05.091Z,85.6
2022-12-01T00:15:05.085Z,86
2022-12-01T00:20:15.380Z,83.7
2022-12-01T00:25:15.385Z,85.9
2022-12-01T00:31:05.065Z,85.7
2022-12-01T00:36:05.141Z,85.8
2022-12-01T00:41:15.351Z,85
2022-12-01T00:46:15.593Z,84.8
2022-12-01T00:52:05.080Z,87
2022-12-01T00:57:15.174Z,86.8
2022-12-01T01:02:15.452Z,87
2022-12-01T01:07:15.334Z,86.7
2022-12-01T01:12:15.342Z,87.2
2022-12-01T01:18:05.075Z,86.3
2022-12-01T01:23:15.325Z,86.9
2022-12-01T01:28:15.340Z,87.2
2022-12-01T01:34:05.096Z,86.7
2022-12-01T01:39:15.402Z,87.3
2022-12-01T01:45:05.092Z,87.2
2022-12-01T01:50:15.338Z,86.7
2022-12-01T01:55:15.368Z,84.7
2022-12-01T02:01:05.177Z,85.3
2022-12-01T02:06:05.344Z,86
2022-12-01T02:11:15.303Z,84.6
2022-12-01T02:17:04.904Z,85.2
2022-12-01T02:22:05.073Z,85.9
2022-12-01T02:27:15.324Z,85.4
2022-12-01T02:33:04.836Z,85.8
2022-12-01T02:38:04.863Z,86
2022-12-01T02:43:04.878Z,86.4
2022-12-01T02:48:05.061Z,86.4
2022-12-01T02:53:15.356Z,85.4
2022-12-01T02:59:05.356Z,86
2022-12-01T03:04:15.313Z,86.9
2022-12-01T03:09:25.625Z,87.6
2022-12-01T03:15:05.041Z,87.3
2022-12-01T03:20:15.102Z,85.9
2022-12-01T03:25:15.323Z,85.3
2022-12-01T03:30:15.622Z,86.1
2022-12-01T03:36:05.043Z,86.6
2022-12-01T03:41:15.317Z,88
2022-12-01T03:46:15.406Z,85.5
2022-12-01T03:52:04.975Z,86
2022-12-01T03:57:05.042Z,88.2
2022-12-01T04:02:15.131Z,86.6
2022-12-01T04:07:15.184Z,86.5
2022-12-01T04:12:15.209Z,86
2022-12-01T04:18:05.047Z,86.3
2022-12-01T04:23:15.298Z,84.9
2022-12-01T04:28:15.331Z,85
2022-12-01T04:34:05.021Z,86
2022-12-01T04:39:15.283Z,85.5
2022-12-01T04:45:05.042Z,85.2
2022-12-01T04:50:05.024Z,85.6
2022-12-01T04:55:15.292Z,84.4
2022-12-01T05:01:04.941Z,83.8
2022-12-01T05:06:15.340Z,84.8
2022-12-01T05:12:04.865Z,85.2
2022-12-01T05:17:15.211Z,86.7
2022-12-01T05:23:06.297Z,85.2
2022-12-01T05:28:04.858Z,82.7
2022-12-01T05:33:15.061Z,86.2
2022-12-01T05:38:15.131Z,86.5
2022-12-01T05:43:15.144Z,86.7
2022-12-01T05:49:04.925Z,85.6
2022-12-01T05:54:15.131Z,85.8
2022-12-01T06:00:05.141Z,85.5
2022-12-01T06:05:20.852Z,85.9
2022-12-01T06:11:04.800Z,85.3
2022-12-01T06:16:04.878Z,85.4
2022-12-01T06:21:05.124Z,86.5
2022-12-01T06:26:15.101Z,85.9
2022-12-01T06:31:15.317Z,85.9
2022-12-01T06:36:15.356Z,85.5
2022-12-01T06:41:15.347Z,86.2
2022-12-01T06:47:05.020Z,85.6
2022-12-01T06:52:15.146Z,84.3
2022-12-01T06:57:15.306Z,84
2022-12-01T07:03:04.801Z,84.8
2022-12-01T07:08:04.960Z,85.3
2022-12-01T07:13:05.109Z,86.7
2022-12-01T07:18:15.520Z,87.3
2022-12-01T07:24:05.027Z,86.4
2022-12-01T07:29:04.994Z,85.8
2022-12-01T07:34:05.023Z,85.1
2022-12-01T07:39:15.328Z,86.7
2022-12-01T07:45:05.010Z,85
2022-12-01T07:50:15.278Z,84.7
2022-12-01T07:56:08.603Z,84.6
2022-12-01T08:01:05.106Z,84.9
2022-12-01T08:06:15.309Z,85.7
2022-12-01T08:11:15.383Z,85.6
2022-12-01T08:17:05.206Z,85.9
2022-12-01T08:22:15.271Z,85.1
2022-12-01T08:28:05.019Z,84.5
2022-12-01T08:33:05.041Z,86.4
2022-12-01T08:38:15.135Z,86.2
2022-12-01T08:43:34.682Z,85.8
2022-12-01T08:48:15.314Z,84.7
2022-12-01T08:54:05.003Z,85.5
2022-12-01T08:59:05.190Z,83.6
2022-12-01T09:04:15.081Z,82.4
2022-12-01T09:09:15.279Z,86.4
2022-12-01T09:15:04.806Z,84.3
2022-12-01T09:20:05.134Z,83.9
2022-12-01T09:25:15.060Z,85.4
2022-12-01T09:30:15.373Z,83.9
2022-12-01T09:36:05.084Z,85
2022-12-01T09:41:05.084Z,84.6
2022-12-01T09:46:15.391Z,81.5
2022-12-01T09:52:05.469Z,80.1
2022-12-01T09:57:15.277Z,79.4
2022-12-01T10:03:05.140Z,78.3
2022-12-01T10:08:15.266Z,78.4
2022-12-01T10:13:15.282Z,78.6
2022-12-01T10:19:05.017Z,79.6
2022-12-01T10:24:15.263Z,77
2022-12-01T10:29:15.284Z,76
2022-12-01T10:35:04.764Z,75.3
2022-12-01T10:40:05.101Z,75.5
2022-12-01T10:45:15.395Z,73.9
2022-12-01T10:51:05.092Z,74.4
2022-12-01T10:56:15.265Z,75.3
2022-12-01T11:01:15.395Z,73.6
2022-12-01T11:07:04.978Z,70.7
2022-12-01T11:12:04.979Z,72.3
2022-12-01T11:17:15.345Z,72.9
2022-12-01T11:23:04.813Z,74.9
2022-12-01T11:28:04.845Z,76.2
2022-12-01T11:33:15.116Z,75
2022-12-01T11:38:30.802Z,74.8
2022-12-01T11:44:12.709Z,76.1
2022-12-01T11:49:15.161Z,77.8
2022-12-01T11:55:09.958Z,77.3
2022-12-01T12:00:04.817Z,77.7
2022-12-01T12:05:15.067Z,78.2
2022-12-01T12:11:04.849Z,76.5
2022-12-01T12:16:04.857Z,78
2022-12-01T12:21:15.036Z,76.3
2022-12-01T12:26:15.112Z,75.3
2022-12-01T12:32:04.876Z,75.4
2022-12-01T12:37:05.015Z,74.3
2022-12-01T12:42:15.204Z,74.5
2022-12-01T12:48:05.039Z,75.1
2022-12-01T12:53:15.285Z,74.1
2022-12-01T12:59:04.778Z,72.3
2022-12-01T13:04:04.969Z,73.3
2022-12-01T13:09:15.140Z,73.7
2022-12-01T13:14:15.744Z,72
2022-12-01T13:20:04.983Z,71.2
2022-12-01T13:25:04.982Z,72.1
2022-12-01T13:30:05.079Z,72
2022-12-01T13:35:15.303Z,73
2022-12-01T13:41:04.970Z,71.7
2022-12-01T13:46:15.132Z,72
2022-12-01T13:51:19.189Z,73.7
2022-12-01T13:57:04.893Z,73.4
2022-12-01T14:02:05.057Z,73.6
2022-12-01T14:07:15.237Z,75.6
2022-12-01T14:13:04.930Z,74.2
2022-12-01T14:18:15.248Z,75.8
2022-12-01T14:24:04.989Z,76.3
2022-12-01T14:29:15.252Z,75.5
2022-12-01T14:35:04.915Z,77
2022-12-01T14:40:04.966Z,77.4
2022-12-01T14:45:15.338Z,77.5
2022-12-01T14:50:15.256Z,75.6
2022-12-01T14:56:04.960Z,78.6
2022-12-01T15:01:23.551Z,76.5
2022-12-01T15:07:04.975Z,76.7
2022-12-01T15:12:05.035Z,76
2022-12-01T15:17:15.245Z,76.1
2022-12-01T15:23:04.917Z,76
2022-12-01T15:28:04.945Z,76.8
2022-12-01T15:33:05.175Z,76.5
2022-12-01T15:38:15.211Z,78.2
2022-12-01T15:44:04.962Z,78.5
2022-12-01T15:49:05.060Z,77.5
2022-12-01T15:54:15.231Z,76.6
2022-12-01T15:59:15.295Z,77.8
2022-12-01T16:05:04.729Z,77
2022-12-01T16:10:04.832Z,76.3
2022-12-01T16:15:04.975Z,77
2022-12-01T16:20:15.073Z,76.4
2022-12-01T16:26:04.918Z,77.4
2022-12-01T16:31:15.487Z,76.1
2022-12-01T16:36:15.271Z,76.6
2022-12-01T16:42:05.035Z,75.2
2022-12-01T16:47:04.942Z,75.3
2022-12-01T16:52:42.985Z,75.2
2022-12-01T16:57:15.277Z,76.2
2022-12-01T17:03:04.999Z,75.4
2022-12-01T17:08:05.051Z,75.5
2022-12-01T17:13:05.606Z,76
2022-12-01T17:18:15.230Z,76.5
2022-12-01T17:23:15.380Z,78
2022-12-01T17:29:04.804Z,77.4
2022-12-01T17:34:04.857Z,78.4
2022-12-01T17:39:14.970Z,79
2022-12-01T17:44:14.990Z,78.9
2022-12-01T17:49:15.055Z,78.8
2022-12-01T17:54:15.043Z,78.6
2022-12-01T17:59:15.133Z,79.5
2022-12-01T18:05:04.891Z,78.5
2022-12-01T18:10:15.158Z,79.9
2022-12-01T18:16:04.769Z,78.2
2022-12-01T18:21:04.787Z,77.8
2022-12-01T18:26:16.164Z,78
2022-12-01T18:32:04.764Z,78.9
2022-12-01T18:37:15.029Z,76.9
2022-12-01T18:42:15.026Z,76.3
2022-12-01T18:48:04.694Z,75.7
2022-12-01T18:53:04.953Z,76.6
2022-12-01T18:58:04.962Z,76.1
2022-12-01T19:03:15.172Z,74
2022-12-01T19:09:04.922Z,74.4
2022-12-01T19:14:04.959Z,74.4
2022-12-01T19:19:15.163Z,75.6
2022-12-01T19:24:15.205Z,75.3
2022-12-01T19:30:04.915Z,75.7
2022-12-01T19:35:15.197Z,74.6
2022-12-01T19:41:05.000Z,74.4
2022-12-01T19:46:15.200Z,75.5
2022-12-01T19:51:15.170Z,74.1
2022-12-01T19:57:04.693Z,74.7
2022-12-01T20:02:04.933Z,73.6
2022-12-01T20:07:14.999Z,74.2
2022-12-01T20:12:24.720Z,75.7
2022-12-01T20:18:04.656Z,75.4
2022-12-01T20:23:04.710Z,74.8
2022-12-01T20:28:14.980Z,75.7
2022-12-01T20:33:15.167Z,74.2
2022-12-01T20:38:15.184Z,75.4
2022-12-01T20:44:07.513Z,75.5
2022-12-01T20:49:04.900Z,74.1
2022-12-01T20:54:27.323Z,73.9
2022-12-01T20:59:05.080Z,75.5
2022-12-01T21:04:15.650Z,76.2
2022-12-01T21:09:25.261Z,75.7
2022-12-01T21:15:04.872Z,76.2
2022-12-01T21:20:15.186Z,75.9
2022-12-01T21:26:04.683Z,75.7
2022-12-01T21:31:05.022Z,76.7
2022-12-01T21:36:15.165Z,76.7
2022-12-01T21:42:04.879Z,76.3
2022-12-01T21:47:14.936Z,75.6
2022-12-01T21:52:15.035Z,76.4
2022-12-01T21:58:04.888Z,75.4
2022-12-01T22:03:14.956Z,75.2
2022-12-01T22:08:15.097Z,76.7
2022-12-01T22:13:15.135Z,76.9
2022-12-01T22:18:15.151Z,75.5
2022-12-01T22:24:04.881Z,77.4
2022-12-01T22:29:04.879Z,77.6
2022-12-01T22:34:04.870Z,76.9
2022-12-01T22:39:04.892Z,76.1
2022-12-01T22:44:15.163Z,77.7
2022-12-01T22:50:04.854Z,76.9
2022-12-01T22:55:04.862Z,76.4
2022-12-01T23:00:15.172Z,77.2
2022-12-01T23:06:04.799Z,77.3
2022-12-01T23:11:15.148Z,77.3
2022-12-01T23:17:04.876Z,76.2
2022-12-01T23:22:04.858Z,75.6
2022-12-01T23:27:05.353Z,76.9
2022-12-01T23:32:15.167Z,76.5
2022-12-01T23:38:04.659Z,77.6
2022-12-01T23:43:14.920Z,76.9
2022-12-01T23:48:14.963Z,76.4
2022-12-01T23:54:04.651Z,77.7
2022-12-01T23:59:04.710Z,77.5
